sensor_id;sensor_type;location;lat;lon;timestamp;P1;durP1;ratioP1;P2;durP2;ratioP2
15820;SDS011;8011;51.650;7.240;2023-01-16T04:02:43;2.97;;;0.97;;
15820;SDS011;8011;51.650;7.240;2023-01-16T04:05:22;1.90;;;1.00;;
15820;SDS011;8011;51.650;7.240;2023-01-16T04:08:16;2.03;;;0.70;;
15820;SDS011;8011;51.650;7.240;2023-01-16T04:10:42;1.80;;;0.80;;
15820;SDS011;8011;51.650;7.240;2023-01-16T04:13:16;5.00;;;0.80;;
15820;SDS011;8011;51.650;7.240;2023-01-16T04:15:46;1.13;;;0.50;;
15820;SDS011;8011;51.650;7.240;2023-01-16T04:18:15;1.23;;;0.60;;
15820;SDS011;8011;51.650;7.240;2023-01-16T04:20:41;1.10;;;0.70;;
15820;SDS011;8011;51.650;7.240;2023-01-16T04:23:11;2.17;;;0.83;;
15820;SDS011;8011;51.650;7.240;2023-01-16T04:25:38;1.33;;;0.60;;
15820;SDS011;8011;51.650;7.240;2023-01-16T04:28:04;1.47;;;0.70;;
15820;SDS011;8011;51.650;7.240;2023-01-16T04:30:30;1.23;;;0.70;;
15820;SDS011;8011;51.650;7.240;2023-01-16T04:32:55;0.60;;;0.60;;
15820;SDS011;8011;51.650;7.240;2023-01-16T04:35:21;1.47;;;0.73;;
15820;SDS011;8011;51.650;7.240;2023-01-16T04:37:47;0.60;;;0.60;;
15820;SDS011;8011;51.650;7.240;2023-01-16T04:40:12;1.77;;;0.80;;
15820;SDS011;8011;51.650;7.240;2023-01-16T04:42:38;1.90;;;0.70;;
15820;SDS011;8011;51.650;7.240;2023-01-16T04:45:04;1.23;;;0.80;;
15820;SDS011;8011;51.650;7.240;2023-01-16T04:47:30;2.83;;;0.80;;
15820;SDS011;8011;51.650;7.240;2023-01-16T04:49:55;1.23;;;0.70;;
15820;SDS011;8011;51.650;7.240;2023-01-16T04:52:21;3.73;;;0.97;;
15820;SDS011;8011;51.650;7.240;2023-01-16T04:54:47;1.57;;;0.70;;
15820;SDS011;8011;51.650;7.240;2023-01-16T04:57:12;0.80;;;0.70;;
15820;SDS011;8011;51.650;7.240;2023-01-16T04:59:38;0.90;;;0.60;;
15820;SDS011;8011;51.650;7.240;2023-01-16T05:02:04;2.77;;;0.70;;
15820;SDS011;8011;51.650;7.240;2023-01-16T05:04:29;1.43;;;0.77;;
15820;SDS011;8011;51.650;7.240;2023-01-16T05:06:55;0.80;;;0.80;;
15820;SDS011;8011;51.650;7.240;2023-01-16T05:09:21;1.37;;;0.50;;
15820;SDS011;8011;51.650;7.240;2023-01-16T05:11:46;2.70;;;0.77;;
15820;SDS011;8011;51.650;7.240;2023-01-16T05:14:12;2.17;;;0.63;;
15820;SDS011;8011;51.650;7.240;2023-01-16T05:16:38;1.37;;;0.60;;
15820;SDS011;8011;51.650;7.240;2023-01-16T05:19:07;0.67;;;0.50;;
15820;SDS011;8011;51.650;7.240;2023-01-16T05:21:33;1.50;;;0.60;;
15820;SDS011;8011;51.650;7.240;2023-01-16T05:23:59;2.93;;;0.60;;
15820;SDS011;8011;51.650;7.240;2023-01-16T05:26:25;1.63;;;0.80;;
15820;SDS011;8011;51.650;7.240;2023-01-16T05:28:53;1.33;;;0.80;;
15820;SDS011;8011;51.650;7.240;2023-01-16T05:31:19;1.70;;;0.70;;
15820;SDS011;8011;51.650;7.240;2023-01-16T05:33:44;1.43;;;0.80;;
15820;SDS011;8011;51.650;7.240;2023-01-16T05:36:10;1.57;;;0.80;;
15820;SDS011;8011;51.650;7.240;2023-01-16T05:38:36;0.93;;;0.80;;
15820;SDS011;8011;51.650;7.240;2023-01-16T05:41:01;1.33;;;0.57;;
15820;SDS011;8011;51.650;7.240;2023-01-16T05:43:27;1.13;;;0.83;;
15820;SDS011;8011;51.650;7.240;2023-01-16T05:45:53;1.73;;;1.00;;
15820;SDS011;8011;51.650;7.240;2023-01-16T05:48:18;1.20;;;0.90;;
15820;SDS011;8011;51.650;7.240;2023-01-16T05:50:44;2.30;;;0.90;;
15820;SDS011;8011;51.650;7.240;2023-01-16T05:53:10;1.03;;;0.80;;
15820;SDS011;8011;51.650;7.240;2023-01-16T05:55:43;1.70;;;0.80;;
15820;SDS011;8011;51.650;7.240;2023-01-16T05:58:10;3.37;;;1.07;;
15820;SDS011;8011;51.650;7.240;2023-01-16T06:00:37;3.80;;;0.70;;
15820;SDS011;8011;51.650;7.240;2023-01-16T06:03:03;1.83;;;0.87;;
15820;SDS011;8011;51.650;7.240;2023-01-16T06:05:29;1.10;;;0.90;;
15820;SDS011;8011;51.650;7.240;2023-01-16T06:07:55;1.47;;;0.90;;
15820;SDS011;8011;51.650;7.240;2023-01-16T06:10:21;1.63;;;0.90;;
15820;SDS011;8011;51.650;7.240;2023-01-16T06:12:48;5.67;;;1.20;;
15820;SDS011;8011;51.650;7.240;2023-01-16T06:15:13;2.17;;;1.10;;
15820;SDS011;8011;51.650;7.240;2023-01-16T06:17:39;1.00;;;0.90;;
15820;SDS011;8011;51.650;7.240;2023-01-16T06:20:05;2.37;;;1.07;;
15820;SDS011;8011;51.650;7.240;2023-01-16T06:22:31;1.53;;;1.10;;
15820;SDS011;8011;51.650;7.240;2023-01-16T06:24:56;1.57;;;0.90;;
15820;SDS011;8011;51.650;7.240;2023-01-16T06:27:22;2.07;;;1.10;;
15820;SDS011;8011;51.650;7.240;2023-01-16T06:29:48;3.07;;;1.00;;
15820;SDS011;8011;51.650;7.240;2023-01-16T06:32:14;2.10;;;0.90;;
15820;SDS011;8011;51.650;7.240;2023-01-16T06:34:41;2.77;;;0.97;;
15820;SDS011;8011;51.650;7.240;2023-01-16T06:37:07;3.60;;;1.60;;
15820;SDS011;8011;51.650;7.240;2023-01-16T06:39:33;3.73;;;1.60;;
15820;SDS011;8011;51.650;7.240;2023-01-16T06:41:59;2.37;;;1.30;;
15820;SDS011;8011;51.650;7.240;2023-01-16T06:44:24;4.00;;;1.20;;
15820;SDS011;8011;51.650;7.240;2023-01-16T06:46:50;4.27;;;1.17;;
15820;SDS011;8011;51.650;7.240;2023-01-16T06:49:15;2.57;;;1.03;;
15820;SDS011;8011;51.650;7.240;2023-01-16T06:51:41;3.17;;;1.13;;
15820;SDS011;8011;51.650;7.240;2023-01-16T06:54:08;2.13;;;1.10;;
15820;SDS011;8011;51.650;7.240;2023-01-16T06:56:34;5.17;;;1.30;;
15820;SDS011;8011;51.650;7.240;2023-01-16T06:59:00;3.57;;;1.40;;
15820;SDS011;8011;51.650;7.240;2023-01-16T07:01:26;3.23;;;1.67;;
15820;SDS011;8011;51.650;7.240;2023-01-16T07:03:52;2.30;;;1.20;;
15820;SDS011;8011;51.650;7.240;2023-01-16T07:06:17;4.23;;;2.63;;
15820;SDS011;8011;51.650;7.240;2023-01-16T07:08:43;4.13;;;2.73;;
15820;SDS011;8011;51.650;7.240;2023-01-16T07:11:09;2.27;;;1.30;;
15820;SDS011;8011;51.650;7.240;2023-01-16T07:13:35;3.70;;;1.83;;
15820;SDS011;8011;51.650;7.240;2023-01-16T07:16:00;4.30;;;2.77;;
15820;SDS011;8011;51.650;7.240;2023-01-16T07:18:45;4.50;;;3.47;;
15820;SDS011;8011;51.650;7.240;2023-01-16T07:21:29;2.97;;;2.33;;
15820;SDS011;8011;51.650;7.240;2023-01-16T07:24:16;1.93;;;1.80;;
15820;SDS011;8011;51.650;7.240;2023-01-16T07:26:46;3.37;;;1.63;;
15820;SDS011;8011;51.650;7.240;2023-01-16T07:29:15;2.37;;;1.13;;
15820;SDS011;8011;51.650;7.240;2023-01-16T07:31:41;1.30;;;1.20;;
15820;SDS011;8011;51.650;7.240;2023-01-16T07:34:06;1.83;;;0.97;;
15820;SDS011;8011;51.650;7.240;2023-01-16T07:36:32;1.17;;;0.93;;
15820;SDS011;8011;51.650;7.240;2023-01-16T07:38:58;2.93;;;1.33;;
15820;SDS011;8011;51.650;7.240;2023-01-16T07:41:23;1.97;;;1.27;;
15820;SDS011;8011;51.650;7.240;2023-01-16T07:43:49;2.33;;;1.57;;
15820;SDS011;8011;51.650;7.240;2023-01-16T07:46:15;18.90;;;13.57;;
15820;SDS011;8011;51.650;7.240;2023-01-16T07:48:41;17.13;;;11.73;;
15820;SDS011;8011;51.650;7.240;2023-01-16T07:51:06;14.37;;;8.10;;
15820;SDS011;8011;51.650;7.240;2023-01-16T07:53:32;11.17;;;7.40;;
15820;SDS011;8011;51.650;7.240;2023-01-16T07:55:59;10.20;;;8.47;;
15820;SDS011;8011;51.650;7.240;2023-01-16T07:58:26;5.63;;;3.07;;
15820;SDS011;8011;51.650;7.240;2023-01-16T08:00:53;8.37;;;5.37;;
15820;SDS011;8011;51.650;7.240;2023-01-16T08:03:20;6.63;;;3.67;;
15820;SDS011;8011;51.650;7.240;2023-01-16T08:05:46;1.40;;;1.20;;
15820;SDS011;8011;51.650;7.240;2023-01-16T08:08:13;1.27;;;1.17;;
15820;SDS011;8011;51.650;7.240;2023-01-16T08:10:38;2.97;;;1.20;;
15820;SDS011;8011;51.650;7.240;2023-01-16T08:13:04;1.83;;;1.10;;
15820;SDS011;8011;51.650;7.240;2023-01-16T08:15:30;1.47;;;1.03;;
15820;SDS011;8011;51.650;7.240;2023-01-16T08:17:56;1.37;;;1.00;;
15820;SDS011;8011;51.650;7.240;2023-01-16T08:20:22;1.73;;;1.13;;
15820;SDS011;8011;51.650;7.240;2023-01-16T08:22:50;1.60;;;1.03;;
15820;SDS011;8011;51.650;7.240;2023-01-16T08:25:17;1.30;;;0.90;;
15820;SDS011;8011;51.650;7.240;2023-01-16T08:27:45;3.77;;;1.23;;
15820;SDS011;8011;51.650;7.240;2023-01-16T08:30:11;2.30;;;1.00;;
15820;SDS011;8011;51.650;7.240;2023-01-16T08:32:37;2.37;;;1.00;;
15820;SDS011;8011;51.650;7.240;2023-01-16T08:35:03;1.57;;;1.00;;
15820;SDS011;8011;51.650;7.240;2023-01-16T08:37:30;2.03;;;1.00;;
15820;SDS011;8011;51.650;7.240;2023-01-16T08:39:56;2.63;;;1.00;;
15820;SDS011;8011;51.650;7.240;2023-01-16T08:42:21;3.77;;;1.17;;
15820;SDS011;8011;51.650;7.240;2023-01-16T08:45:08;0.90;;;0.70;;
15820;SDS011;8011;51.650;7.240;2023-01-16T08:47:53;2.87;;;0.97;;
15820;SDS011;8011;51.650;7.240;2023-01-16T08:50:38;3.10;;;1.10;;
15820;SDS011;8011;51.650;7.240;2023-01-16T08:53:22;2.50;;;0.80;;
15820;SDS011;8011;51.650;7.240;2023-01-16T08:55:48;2.10;;;1.03;;
15820;SDS011;8011;51.650;7.240;2023-01-16T08:58:14;1.73;;;1.00;;
15820;SDS011;8011;51.650;7.240;2023-01-16T09:00:40;2.33;;;0.90;;
15820;SDS011;8011;51.650;7.240;2023-01-16T09:03:06;1.80;;;0.80;;
15820;SDS011;8011;51.650;7.240;2023-01-16T09:05:32;1.70;;;1.13;;
15820;SDS011;8011;51.650;7.240;2023-01-16T09:07:57;2.27;;;1.00;;
15820;SDS011;8011;51.650;7.240;2023-01-16T09:10:23;2.40;;;1.10;;
15820;SDS011;8011;51.650;7.240;2023-01-16T09:12:49;1.77;;;0.90;;
15820;SDS011;8011;51.650;7.240;2023-01-16T09:15:34;1.37;;;0.90;;
15820;SDS011;8011;51.650;7.240;2023-01-16T09:17:59;4.00;;;1.10;;
15820;SDS011;8011;51.650;7.240;2023-01-16T09:20:25;1.17;;;0.90;;
15820;SDS011;8011;51.650;7.240;2023-01-16T09:23:00;3.50;;;1.00;;
15820;SDS011;8011;51.650;7.240;2023-01-16T09:25:28;4.13;;;1.50;;
15820;SDS011;8011;51.650;7.240;2023-01-16T09:27:56;1.80;;;1.00;;
15820;SDS011;8011;51.650;7.240;2023-01-16T09:30:22;1.37;;;0.87;;
15820;SDS011;8011;51.650;7.240;2023-01-16T09:32:48;2.17;;;0.93;;
15820;SDS011;8011;51.650;7.240;2023-01-16T09:35:13;3.37;;;1.07;;
15820;SDS011;8011;51.650;7.240;2023-01-16T09:37:39;1.57;;;0.73;;
15820;SDS011;8011;51.650;7.240;2023-01-16T09:40:15;1.83;;;0.80;;
15820;SDS011;8011;51.650;7.240;2023-01-16T09:46:04;3.67;;;1.00;;
15820;SDS011;8011;51.650;7.240;2023-01-16T09:48:36;2.67;;;1.00;;
15820;SDS011;8011;51.650;7.240;2023-01-16T09:51:11;1.83;;;0.60;;
15820;SDS011;8011;51.650;7.240;2023-01-16T09:56:30;2.80;;;0.90;;
15820;SDS011;8011;51.650;7.240;2023-01-16T10:02:19;1.27;;;0.80;;
15820;SDS011;8011;51.650;7.240;2023-01-16T10:04:49;1.57;;;0.67;;
15820;SDS011;8011;51.650;7.240;2023-01-16T10:18:55;1.40;;;0.73;;
15820;SDS011;8011;51.650;7.240;2023-01-16T10:24:10;0.70;;;0.70;;
15820;SDS011;8011;51.650;7.240;2023-01-16T10:27:07;1.30;;;0.80;;
15820;SDS011;8011;51.650;7.240;2023-01-16T10:34:59;2.53;;;1.40;;
15820;SDS011;8011;51.650;7.240;2023-01-16T10:37:34;1.57;;;1.13;;
15820;SDS011;8011;51.650;7.240;2023-01-16T10:40:00;2.80;;;1.20;;
15820;SDS011;8011;51.650;7.240;2023-01-16T10:43:04;2.27;;;1.13;;
15820;SDS011;8011;51.650;7.240;2023-01-16T10:45:55;1.90;;;1.20;;
15820;SDS011;8011;51.650;7.240;2023-01-16T10:48:43;1.93;;;0.97;;
15820;SDS011;8011;51.650;7.240;2023-01-16T10:51:27;1.33;;;1.00;;
15820;SDS011;8011;51.650;7.240;2023-01-16T10:53:52;1.57;;;0.97;;
15820;SDS011;8011;51.650;7.240;2023-01-16T10:56:18;2.37;;;0.90;;
15820;SDS011;8011;51.650;7.240;2023-01-16T10:58:44;1.57;;;0.90;;
15820;SDS011;8011;51.650;7.240;2023-01-16T11:01:17;1.80;;;0.80;;
15820;SDS011;8011;51.650;7.240;2023-01-16T11:03:47;1.83;;;0.93;;
15820;SDS011;8011;51.650;7.240;2023-01-16T11:06:19;1.10;;;0.73;;
15820;SDS011;8011;51.650;7.240;2023-01-16T11:08:54;1.70;;;0.80;;
15820;SDS011;8011;51.650;7.240;2023-01-16T11:11:27;2.63;;;1.00;;
15820;SDS011;8011;51.650;7.240;2023-01-16T11:14:13;1.10;;;0.80;;
15820;SDS011;8011;51.650;7.240;2023-01-16T11:20:18;1.17;;;0.80;;
15820;SDS011;8011;51.650;7.240;2023-01-16T11:22:54;1.07;;;0.70;;
15820;SDS011;8011;51.650;7.240;2023-01-16T11:25:22;1.30;;;0.80;;
15820;SDS011;8011;51.650;7.240;2023-01-16T11:27:49;0.93;;;0.73;;
15820;SDS011;8011;51.650;7.240;2023-01-16T11:30:18;1.73;;;0.87;;
15820;SDS011;8011;51.650;7.240;2023-01-16T11:32:52;2.10;;;0.70;;
15820;SDS011;8011;51.650;7.240;2023-01-16T11:35:20;1.13;;;0.70;;
15820;SDS011;8011;51.650;7.240;2023-01-16T11:37:56;1.53;;;0.80;;
15820;SDS011;8011;51.650;7.240;2023-01-16T11:40:23;1.10;;;0.80;;
15820;SDS011;8011;51.650;7.240;2023-01-16T11:42:55;0.90;;;0.83;;
15820;SDS011;8011;51.650;7.240;2023-01-16T11:45:45;0.70;;;0.60;;
15820;SDS011;8011;51.650;7.240;2023-01-16T11:48:37;0.90;;;0.70;;
15820;SDS011;8011;51.650;7.240;2023-01-16T11:51:13;0.93;;;0.60;;
15820;SDS011;8011;51.650;7.240;2023-01-16T11:53:42;0.80;;;0.70;;
15820;SDS011;8011;51.650;7.240;2023-01-16T12:04:37;1.23;;;0.80;;
15820;SDS011;8011;51.650;7.240;2023-01-16T12:07:41;1.90;;;0.90;;
15820;SDS011;8011;51.650;7.240;2023-01-16T12:13:05;0.60;;;0.60;;
15820;SDS011;8011;51.650;7.240;2023-01-16T12:18:34;1.63;;;0.67;;
15820;SDS011;8011;51.650;7.240;2023-01-16T12:21:28;0.80;;;0.53;;
15820;SDS011;8011;51.650;7.240;2023-01-16T12:27:12;1.13;;;0.67;;
15820;SDS011;8011;51.650;7.240;2023-01-16T12:35:18;1.60;;;0.63;;
15820;SDS011;8011;51.650;7.240;2023-01-16T12:43:35;0.90;;;0.50;;
15820;SDS011;8011;51.650;7.240;2023-01-16T12:58:03;0.50;;;0.50;;
15820;SDS011;8011;51.650;7.240;2023-01-16T13:06:46;1.37;;;0.77;;
15820;SDS011;8011;51.650;7.240;2023-01-16T13:12:42;0.80;;;0.60;;
15820;SDS011;8011;51.650;7.240;2023-01-16T13:15:32;0.70;;;0.60;;
15820;SDS011;8011;51.650;7.240;2023-01-16T13:18:09;0.80;;;0.60;;
15820;SDS011;8011;51.650;7.240;2023-01-16T13:20:49;1.47;;;0.80;;
15820;SDS011;8011;51.650;7.240;2023-01-16T13:23:20;2.53;;;1.10;;
15820;SDS011;8011;51.650;7.240;2023-01-16T13:26:07;0.70;;;0.70;;
15820;SDS011;8011;51.650;7.240;2023-01-16T13:28:50;0.90;;;0.60;;
15820;SDS011;8011;51.650;7.240;2023-01-16T13:31:23;3.27;;;1.77;;
15820;SDS011;8011;51.650;7.240;2023-01-16T13:34:42;1.80;;;1.00;;
15820;SDS011;8011;51.650;7.240;2023-01-16T13:37:10;0.80;;;0.73;;
15820;SDS011;8011;51.650;7.240;2023-01-16T13:40:07;0.67;;;0.60;;
15820;SDS011;8011;51.650;7.240;2023-01-16T13:42:51;0.60;;;0.60;;
15820;SDS011;8011;51.650;7.240;2023-01-16T13:45:30;0.63;;;0.63;;
15820;SDS011;8011;51.650;7.240;2023-01-16T13:48:13;1.03;;;1.03;;
15820;SDS011;8011;51.650;7.240;2023-01-16T13:50:45;4.93;;;4.43;;
15820;SDS011;8011;51.650;7.240;2023-01-16T13:53:26;9.10;;;8.20;;
15820;SDS011;8011;51.650;7.240;2023-01-16T13:58:40;3.87;;;3.47;;
15820;SDS011;8011;51.650;7.240;2023-01-16T14:01:28;1.03;;;0.83;;
15820;SDS011;8011;51.650;7.240;2023-01-16T14:04:30;1.20;;;1.03;;
15820;SDS011;8011;51.650;7.240;2023-01-16T14:06:55;1.67;;;0.90;;
15820;SDS011;8011;51.650;7.240;2023-01-16T14:12:33;1.27;;;0.60;;
15820;SDS011;8011;51.650;7.240;2023-01-16T14:15:23;0.70;;;0.70;;
15820;SDS011;8011;51.650;7.240;2023-01-16T14:18:19;0.77;;;0.63;;
15820;SDS011;8011;51.650;7.240;2023-01-16T14:26:08;0.63;;;0.63;;
15820;SDS011;8011;51.650;7.240;2023-01-16T14:28:42;0.50;;;0.50;;
15820;SDS011;8011;51.650;7.240;2023-01-16T14:31:50;0.73;;;0.73;;
15820;SDS011;8011;51.650;7.240;2023-01-16T14:34:10;0.80;;;0.80;;
15820;SDS011;8011;51.650;7.240;2023-01-16T14:36:42;0.80;;;0.70;;
15820;SDS011;8011;51.650;7.240;2023-01-16T14:42:11;0.80;;;0.80;;
15820;SDS011;8011;51.650;7.240;2023-01-16T14:50:54;1.37;;;0.73;;
15820;SDS011;8011;51.650;7.240;2023-01-16T14:53:44;2.00;;;0.70;;
15820;SDS011;8011;51.650;7.240;2023-01-16T14:56:34;1.47;;;0.60;;
15820;SDS011;8011;51.650;7.240;2023-01-16T14:59:16;0.80;;;0.73;;
15820;SDS011;8011;51.650;7.240;2023-01-16T15:01:48;1.10;;;0.70;;
15820;SDS011;8011;51.650;7.240;2023-01-16T15:04:41;0.60;;;0.60;;
15820;SDS011;8011;51.650;7.240;2023-01-16T15:07:14;0.60;;;0.60;;
15820;SDS011;8011;51.650;7.240;2023-01-16T15:09:41;1.23;;;0.60;;
15820;SDS011;8011;51.650;7.240;2023-01-16T15:12:12;0.50;;;0.50;;
15820;SDS011;8011;51.650;7.240;2023-01-16T15:14:52;1.33;;;0.63;;
15820;SDS011;8011;51.650;7.240;2023-01-16T15:17:30;0.50;;;0.50;;
15820;SDS011;8011;51.650;7.240;2023-01-16T15:20:25;1.00;;;0.83;;
15820;SDS011;8011;51.650;7.240;2023-01-16T15:26:01;0.77;;;0.70;;
15820;SDS011;8011;51.650;7.240;2023-01-16T15:31:34;0.87;;;0.77;;
15820;SDS011;8011;51.650;7.240;2023-01-16T15:36:41;1.30;;;0.80;;
15820;SDS011;8011;51.650;7.240;2023-01-16T15:39:20;1.10;;;0.73;;
15820;SDS011;8011;51.650;7.240;2023-01-16T15:41:59;2.50;;;1.10;;
15820;SDS011;8011;51.650;7.240;2023-01-16T15:44:47;1.43;;;1.13;;
15820;SDS011;8011;51.650;7.240;2023-01-16T15:53:06;1.67;;;1.30;;
15820;SDS011;8011;51.650;7.240;2023-01-16T15:55:38;0.80;;;0.80;;
15820;SDS011;8011;51.650;7.240;2023-01-16T15:58:10;1.50;;;1.33;;
15820;SDS011;8011;51.650;7.240;2023-01-16T16:00:39;1.83;;;1.20;;
15820;SDS011;8011;51.650;7.240;2023-01-16T16:03:15;1.80;;;1.30;;
15820;SDS011;8011;51.650;7.240;2023-01-16T16:05:46;2.73;;;1.13;;
15820;SDS011;8011;51.650;7.240;2023-01-16T16:08:18;1.87;;;1.17;;
15820;SDS011;8011;51.650;7.240;2023-01-16T16:10:47;1.60;;;1.00;;
15820;SDS011;8011;51.650;7.240;2023-01-16T16:13:32;1.67;;;1.20;;
15820;SDS011;8011;51.650;7.240;2023-01-16T16:16:00;2.10;;;1.33;;
15820;SDS011;8011;51.650;7.240;2023-01-16T16:18:53;1.43;;;1.30;;
15820;SDS011;8011;51.650;7.240;2023-01-16T16:21:45;1.67;;;1.30;;
15820;SDS011;8011;51.650;7.240;2023-01-16T16:24:34;1.60;;;1.50;;
15820;SDS011;8011;51.650;7.240;2023-01-16T16:27:05;2.33;;;1.50;;
15820;SDS011;8011;51.650;7.240;2023-01-16T16:29:32;1.67;;;1.47;;
15820;SDS011;8011;51.650;7.240;2023-01-16T16:32:00;3.33;;;1.70;;
15820;SDS011;8011;51.650;7.240;2023-01-16T16:34:27;2.07;;;1.50;;
15820;SDS011;8011;51.650;7.240;2023-01-16T16:36:56;4.80;;;2.50;;
15820;SDS011;8011;51.650;7.240;2023-01-16T16:39:30;2.03;;;1.30;;
15820;SDS011;8011;51.650;7.240;2023-01-16T16:45:08;2.10;;;1.27;;
15820;SDS011;8011;51.650;7.240;2023-01-16T16:47:35;2.53;;;1.60;;
15820;SDS011;8011;51.650;7.240;2023-01-16T16:50:23;1.63;;;1.30;;
15820;SDS011;8011;51.650;7.240;2023-01-16T16:52:52;1.40;;;1.27;;
15820;SDS011;8011;51.650;7.240;2023-01-16T16:55:28;1.43;;;1.33;;
15820;SDS011;8011;51.650;7.240;2023-01-16T16:57:57;1.90;;;1.23;;
15820;SDS011;8011;51.650;7.240;2023-01-16T17:00:24;3.93;;;1.43;;
15820;SDS011;8011;51.650;7.240;2023-01-16T17:02:52;2.63;;;1.50;;
15820;SDS011;8011;51.650;7.240;2023-01-16T17:05:30;1.70;;;1.60;;
15820;SDS011;8011;51.650;7.240;2023-01-16T17:07:56;2.00;;;1.80;;
15820;SDS011;8011;51.650;7.240;2023-01-16T17:10:22;3.10;;;1.80;;
15820;SDS011;8011;51.650;7.240;2023-01-16T17:12:48;5.23;;;3.70;;
15820;SDS011;8011;51.650;7.240;2023-01-16T17:15:13;1.93;;;1.80;;
15820;SDS011;8011;51.650;7.240;2023-01-16T17:17:42;2.07;;;1.80;;
15820;SDS011;8011;51.650;7.240;2023-01-16T17:20:18;1.40;;;1.30;;
15820;SDS011;8011;51.650;7.240;2023-01-16T17:22:46;2.53;;;1.50;;
15820;SDS011;8011;51.650;7.240;2023-01-16T17:25:14;2.30;;;1.93;;
15820;SDS011;8011;51.650;7.240;2023-01-16T17:27:45;1.50;;;1.23;;
15820;SDS011;8011;51.650;7.240;2023-01-16T17:30:14;1.40;;;1.30;;
15820;SDS011;8011;51.650;7.240;2023-01-16T17:32:41;2.13;;;1.60;;
15820;SDS011;8011;51.650;7.240;2023-01-16T17:35:14;1.33;;;1.23;;
15820;SDS011;8011;51.650;7.240;2023-01-16T17:37:41;2.10;;;1.80;;
15820;SDS011;8011;51.650;7.240;2023-01-16T17:40:07;2.70;;;1.70;;
15820;SDS011;8011;51.650;7.240;2023-01-16T17:42:34;1.57;;;1.47;;
15820;SDS011;8011;51.650;7.240;2023-01-16T17:46:04;1.60;;;1.50;;
15820;SDS011;8011;51.650;7.240;2023-01-16T17:48:25;3.23;;;2.93;;
15820;SDS011;8011;51.650;7.240;2023-01-16T17:50:51;2.77;;;1.97;;
15820;SDS011;8011;51.650;7.240;2023-01-16T17:53:19;1.90;;;1.80;;
15820;SDS011;8011;51.650;7.240;2023-01-16T17:55:47;4.00;;;3.47;;
15820;SDS011;8011;51.650;7.240;2023-01-16T17:58:15;6.23;;;3.93;;
15820;SDS011;8011;51.650;7.240;2023-01-16T18:00:50;4.53;;;3.60;;
15820;SDS011;8011;51.650;7.240;2023-01-16T18:03:16;2.47;;;2.27;;
15820;SDS011;8011;51.650;7.240;2023-01-16T18:05:43;3.47;;;2.90;;
15820;SDS011;8011;51.650;7.240;2023-01-16T18:08:09;6.60;;;4.47;;
15820;SDS011;8011;51.650;7.240;2023-01-16T18:10:34;5.53;;;4.63;;
15820;SDS011;8011;51.650;7.240;2023-01-16T18:13:00;4.70;;;3.10;;
15820;SDS011;8011;51.650;7.240;2023-01-16T18:16:05;5.07;;;3.43;;
15820;SDS011;8011;51.650;7.240;2023-01-16T18:18:50;1.73;;;1.63;;
15820;SDS011;8011;51.650;7.240;2023-01-16T18:21:17;2.50;;;2.03;;
15820;SDS011;8011;51.650;7.240;2023-01-16T18:24:01;2.23;;;1.90;;
15820;SDS011;8011;51.650;7.240;2023-01-16T18:26:27;4.03;;;2.53;;
15820;SDS011;8011;51.650;7.240;2023-01-16T18:28:52;3.27;;;2.97;;
15820;SDS011;8011;51.650;7.240;2023-01-16T18:31:19;3.40;;;3.10;;
15820;SDS011;8011;51.650;7.240;2023-01-16T18:33:46;4.63;;;3.23;;
15820;SDS011;8011;51.650;7.240;2023-01-16T18:36:20;4.80;;;2.73;;
15820;SDS011;8011;51.650;7.240;2023-01-16T18:38:48;6.30;;;5.07;;
15820;SDS011;8011;51.650;7.240;2023-01-16T18:41:33;8.20;;;4.30;;
15820;SDS011;8011;51.650;7.240;2023-01-16T18:44:17;2.43;;;2.23;;
15820;SDS011;8011;51.650;7.240;2023-01-16T18:47:01;2.87;;;2.67;;
15820;SDS011;8011;51.650;7.240;2023-01-16T18:49:45;3.40;;;2.70;;
15820;SDS011;8011;51.650;7.240;2023-01-16T18:52:31;2.63;;;2.13;;
15820;SDS011;8011;51.650;7.240;2023-01-16T18:55:17;3.80;;;3.40;;
15820;SDS011;8011;51.650;7.240;2023-01-16T18:58:03;3.07;;;2.33;;
15820;SDS011;8011;51.650;7.240;2023-01-16T19:00:48;2.50;;;1.97;;
15820;SDS011;8011;51.650;7.240;2023-01-16T19:03:32;2.47;;;2.27;;
15820;SDS011;8011;51.650;7.240;2023-01-16T19:05:58;2.00;;;1.87;;
15820;SDS011;8011;51.650;7.240;2023-01-16T19:08:24;2.97;;;2.47;;
15820;SDS011;8011;51.650;7.240;2023-01-16T19:10:51;3.03;;;2.60;;
15820;SDS011;8011;51.650;7.240;2023-01-16T19:13:19;3.40;;;3.10;;
15820;SDS011;8011;51.650;7.240;2023-01-16T19:15:46;4.40;;;4.00;;
15820;SDS011;8011;51.650;7.240;2023-01-16T19:18:30;4.17;;;3.60;;
15820;SDS011;8011;51.650;7.240;2023-01-16T19:20:55;4.30;;;3.90;;
15820;SDS011;8011;51.650;7.240;2023-01-16T19:23:22;4.30;;;3.90;;
15820;SDS011;8011;51.650;7.240;2023-01-16T19:25:47;4.67;;;3.67;;
15820;SDS011;8011;51.650;7.240;2023-01-16T19:28:13;4.90;;;4.40;;
15820;SDS011;8011;51.650;7.240;2023-01-16T19:30:39;5.00;;;4.17;;
15820;SDS011;8011;51.650;7.240;2023-01-16T19:33:04;5.13;;;4.30;;
15820;SDS011;8011;51.650;7.240;2023-01-16T19:35:30;6.13;;;4.37;;
15820;SDS011;8011;51.650;7.240;2023-01-16T19:37:56;4.97;;;4.20;;
15820;SDS011;8011;51.650;7.240;2023-01-16T19:40:21;7.33;;;5.30;;
15820;SDS011;8011;51.650;7.240;2023-01-16T19:42:47;6.73;;;5.17;;
15820;SDS011;8011;51.650;7.240;2023-01-16T19:45:31;6.27;;;5.47;;
15820;SDS011;8011;51.650;7.240;2023-01-16T19:48:19;5.70;;;5.17;;
15820;SDS011;8011;51.650;7.240;2023-01-16T19:50:45;6.50;;;5.80;;
15820;SDS011;8011;51.650;7.240;2023-01-16T19:53:10;6.87;;;6.17;;
15820;SDS011;8011;51.650;7.240;2023-01-16T19:55:36;8.97;;;7.03;;
15820;SDS011;8011;51.650;7.240;2023-01-16T19:58:02;7.17;;;6.40;;
15820;SDS011;8011;51.650;7.240;2023-01-16T20:00:28;7.43;;;6.63;;
15820;SDS011;8011;51.650;7.240;2023-01-16T20:02:53;7.63;;;6.80;;
15820;SDS011;8011;51.650;7.240;2023-01-16T20:05:19;8.17;;;6.97;;
15820;SDS011;8011;51.650;7.240;2023-01-16T20:07:45;8.90;;;7.27;;
15820;SDS011;8011;51.650;7.240;2023-01-16T20:10:11;8.30;;;7.23;;
15820;SDS011;8011;51.650;7.240;2023-01-16T20:12:38;9.30;;;8.00;;
15820;SDS011;8011;51.650;7.240;2023-01-16T20:15:03;10.47;;;8.53;;
15820;SDS011;8011;51.650;7.240;2023-01-16T20:17:33;9.00;;;8.10;;
15820;SDS011;8011;51.650;7.240;2023-01-16T20:20:00;10.20;;;9.03;;
15820;SDS011;8011;51.650;7.240;2023-01-16T20:22:28;10.70;;;8.63;;
15820;SDS011;8011;51.650;7.240;2023-01-16T20:24:54;11.63;;;8.80;;
15820;SDS011;8011;51.650;7.240;2023-01-16T20:27:20;10.40;;;8.80;;
15820;SDS011;8011;51.650;7.240;2023-01-16T20:29:46;10.60;;;9.43;;
15820;SDS011;8011;51.650;7.240;2023-01-16T20:32:12;8.27;;;7.30;;
15820;SDS011;8011;51.650;7.240;2023-01-16T20:34:38;9.43;;;7.93;;
15820;SDS011;8011;51.650;7.240;2023-01-16T20:37:06;8.37;;;7.13;;
15820;SDS011;8011;51.650;7.240;2023-01-16T20:39:33;6.90;;;6.17;;
15820;SDS011;8011;51.650;7.240;2023-01-16T20:41:58;6.90;;;5.63;;
15820;SDS011;8011;51.650;7.240;2023-01-16T20:44:43;7.33;;;6.13;;
15820;SDS011;8011;51.650;7.240;2023-01-16T20:47:27;6.83;;;6.20;;
15820;SDS011;8011;51.650;7.240;2023-01-16T20:49:55;6.40;;;5.03;;
15820;SDS011;8011;51.650;7.240;2023-01-16T20:52:21;7.20;;;6.20;;
15820;SDS011;8011;51.650;7.240;2023-01-16T20:54:46;7.53;;;6.70;;
15820;SDS011;8011;51.650;7.240;2023-01-16T20:57:12;8.37;;;7.53;;
15820;SDS011;8011;51.650;7.240;2023-01-16T20:59:39;9.33;;;8.30;;
15820;SDS011;8011;51.650;7.240;2023-01-16T21:02:05;7.23;;;6.53;;
15820;SDS011;8011;51.650;7.240;2023-01-16T21:04:34;7.07;;;6.37;;
15820;SDS011;8011;51.650;7.240;2023-01-16T21:07:00;6.87;;;6.27;;
15820;SDS011;8011;51.650;7.240;2023-01-16T21:09:26;6.50;;;6.00;;
15820;SDS011;8011;51.650;7.240;2023-01-16T21:11:52;6.90;;;6.30;;
15820;SDS011;8011;51.650;7.240;2023-01-16T21:14:36;5.70;;;5.17;;
15820;SDS011;8011;51.650;7.240;2023-01-16T21:17:02;5.53;;;5.07;;
15820;SDS011;8011;51.650;7.240;2023-01-16T21:19:47;5.17;;;4.60;;
15820;SDS011;8011;51.650;7.240;2023-01-16T21:22:32;5.40;;;4.90;;
15820;SDS011;8011;51.650;7.240;2023-01-16T21:25:00;5.83;;;5.33;;
15820;SDS011;8011;51.650;7.240;2023-01-16T21:27:30;5.90;;;5.40;;
15820;SDS011;8011;51.650;7.240;2023-01-16T21:29:58;6.03;;;5.53;;